sensor_id;sensor_type;location;lat;lon;timestamp;pressure;altitude;pressure_sealevel;temperature;humidity
70229;BME280;57617;51.988;5.854;2023-09-12T00:00:36;100828.25;;;24.84;65.72
70229;BME280;57617;51.988;5.854;2023-09-12T00:03:01;100821.38;;;24.82;65.50
70229;BME280;57617;51.988;5.854;2023-09-12T00:05:27;100827.59;;;24.79;65.35
70229;BME280;57617;51.988;5.854;2023-09-12T00:07:52;100819.59;;;24.77;65.26
70229;BME280;57617;51.988;5.854;2023-09-12T00:10:18;100816.81;;;24.77;65.68
70229;BME280;57617;51.988;5.854;2023-09-12T00:12:44;100809.81;;;24.71;65.61
70229;BME280;57617;51.988;5.854;2023-09-12T00:15:09;100814.78;;;24.66;65.54
70229;BME280;57617;51.988;5.854;2023-09-12T00:17:35;100795.78;;;24.68;65.13
70229;BME280;57617;51.988;5.854;2023-09-12T00:20:00;100794.16;;;24.67;65.46
70229;BME280;57617;51.988;5.854;2023-09-12T00:22:25;100799.41;;;24.68;66.07
70229;BME280;57617;51.988;5.854;2023-09-12T00:24:50;100798.09;;;24.66;65.39
70229;BME280;57617;51.988;5.854;2023-09-12T00:27:16;100797.94;;;24.62;65.53
70229;BME280;57617;51.988;5.854;2023-09-12T00:29:41;100801.84;;;24.61;65.54
70229;BME280;57617;51.988;5.854;2023-09-12T00:32:06;100807.75;;;24.60;65.77
70229;BME280;57617;51.988;5.854;2023-09-12T00:34:32;100822.47;;;24.60;65.82
70229;BME280;57617;51.988;5.854;2023-09-12T00:36:57;100822.59;;;24.64;65.25
70229;BME280;57617;51.988;5.854;2023-09-12T00:39:22;100821.44;;;24.65;64.99
70229;BME280;57617;51.988;5.854;2023-09-12T00:41:48;100816.56;;;24.62;65.34
70229;BME280;57617;51.988;5.854;2023-09-12T00:44:13;100824.78;;;24.58;65.49
70229;BME280;57617;51.988;5.854;2023-09-12T00:46:39;100832.28;;;24.49;65.52
70229;BME280;57617;51.988;5.854;2023-09-12T00:49:06;100843.06;;;24.51;65.43
70229;BME280;57617;51.988;5.854;2023-09-12T00:51:33;100810.94;;;24.33;65.81
70229;BME280;57617;51.988;5.854;2023-09-12T00:54:00;100860.03;;;24.58;65.44
70229;BME280;57617;51.988;5.854;2023-09-12T00:56:26;100862.50;;;24.59;65.53
70229;BME280;57617;51.988;5.854;2023-09-12T00:58:51;100858.91;;;24.59;65.96
70229;BME280;57617;51.988;5.854;2023-09-12T01:01:19;100856.78;;;24.56;65.93
70229;BME280;57617;51.988;5.854;2023-09-12T01:03:45;100845.50;;;24.52;65.61
70229;BME280;57617;51.988;5.854;2023-09-12T01:06:10;100837.16;;;24.52;65.96
70229;BME280;57617;51.988;5.854;2023-09-12T01:08:36;100827.88;;;24.48;66.39
70229;BME280;57617;51.988;5.854;2023-09-12T01:11:04;100812.38;;;24.39;65.87
70229;BME280;57617;51.988;5.854;2023-09-12T01:13:30;100815.47;;;24.46;65.88
70229;BME280;57617;51.988;5.854;2023-09-12T01:15:56;100818.72;;;24.48;66.15
70229;BME280;57617;51.988;5.854;2023-09-12T01:18:21;100811.53;;;24.47;65.84
70229;BME280;57617;51.988;5.854;2023-09-12T01:26:29;100806.84;;;24.30;67.04
70229;BME280;57617;51.988;5.854;2023-09-12T01:28:55;100799.34;;;24.31;66.07
70229;BME280;57617;51.988;5.854;2023-09-12T01:31:23;100799.34;;;24.31;66.09
70229;BME280;57617;51.988;5.854;2023-09-12T01:33:49;100793.81;;;24.31;65.92
70229;BME280;57617;51.988;5.854;2023-09-12T01:36:15;100783.84;;;24.21;65.83
70229;BME280;57617;51.988;5.854;2023-09-12T01:38:40;100779.94;;;24.14;66.04
70229;BME280;57617;51.988;5.854;2023-09-12T01:41:06;100779.00;;;24.10;66.57
70229;BME280;57617;51.988;5.854;2023-09-12T01:43:32;100782.25;;;24.12;66.68
70229;BME280;57617;51.988;5.854;2023-09-12T01:46:00;100785.69;;;24.09;66.00
70229;BME280;57617;51.988;5.854;2023-09-12T01:48:32;100789.00;;;24.02;66.65
70229;BME280;57617;51.988;5.854;2023-09-12T01:51:00;100788.19;;;23.93;66.25
70229;BME280;57617;51.988;5.854;2023-09-12T01:53:26;100789.81;;;23.86;66.29
70229;BME280;57617;51.988;5.854;2023-09-12T01:55:51;100796.34;;;23.81;66.55
70229;BME280;57617;51.988;5.854;2023-09-12T01:58:17;100794.53;;;23.77;66.43
70229;BME280;57617;51.988;5.854;2023-09-12T02:00:42;100801.06;;;23.81;66.70
70229;BME280;57617;51.988;5.854;2023-09-12T02:03:08;100800.09;;;23.77;66.86
70229;BME280;57617;51.988;5.854;2023-09-12T02:05:33;100786.56;;;23.67;66.64
70229;BME280;57617;51.988;5.854;2023-09-12T02:07:59;100792.63;;;23.69;66.41
70229;BME280;57617;51.988;5.854;2023-09-12T02:10:26;100787.22;;;23.64;66.63
70229;BME280;57617;51.988;5.854;2023-09-12T02:12:52;100789.19;;;23.63;66.46
70229;BME280;57617;51.988;5.854;2023-09-12T02:15:17;100785.41;;;23.59;66.26
70229;BME280;57617;51.988;5.854;2023-09-12T02:17:42;100788.88;;;23.56;67.31
70229;BME280;57617;51.988;5.854;2023-09-12T02:20:09;100779.72;;;23.56;66.89
70229;BME280;57617;51.988;5.854;2023-09-12T02:22:34;100781.19;;;23.53;66.51
70229;BME280;57617;51.988;5.854;2023-09-12T02:25:00;100787.56;;;23.54;66.15
70229;BME280;57617;51.988;5.854;2023-09-12T02:27:25;100781.81;;;23.50;66.42
70229;BME280;57617;51.988;5.854;2023-09-12T02:29:50;100781.81;;;23.50;66.84
70229;BME280;57617;51.988;5.854;2023-09-12T02:32:16;100780.19;;;23.58;66.73
70229;BME280;57617;51.988;5.854;2023-09-12T02:34:41;100786.09;;;23.56;66.66
70229;BME280;57617;51.988;5.854;2023-09-12T02:37:06;100787.22;;;23.55;66.37
70229;BME280;57617;51.988;5.854;2023-09-12T02:39:31;100797.34;;;23.51;66.28
70229;BME280;57617;51.988;5.854;2023-09-12T02:41:57;100802.38;;;23.49;66.08
70229;BME280;57617;51.988;5.854;2023-09-12T02:44:22;100808.75;;;23.50;66.38
70229;BME280;57617;51.988;5.854;2023-09-12T02:46:47;100805.69;;;23.43;66.30
70229;BME280;57617;51.988;5.854;2023-09-12T02:49:13;100810.88;;;23.36;66.62
70229;BME280;57617;51.988;5.854;2023-09-12T02:51:39;100800.59;;;23.28;66.61
70229;BME280;57617;51.988;5.854;2023-09-12T02:54:04;100812.34;;;23.25;66.37
70229;BME280;57617;51.988;5.854;2023-09-12T02:56:30;100807.44;;;23.22;66.62
70229;BME280;57617;51.988;5.854;2023-09-12T02:58:56;100811.66;;;23.19;66.50
70229;BME280;57617;51.988;5.854;2023-09-12T03:01:21;100807.56;;;23.17;66.63
70229;BME280;57617;51.988;5.854;2023-09-12T03:03:47;100807.56;;;23.17;66.74
70229;BME280;57617;51.988;5.854;2023-09-12T03:06:13;100818.16;;;23.15;66.96
70229;BME280;57617;51.988;5.854;2023-09-12T03:08:43;100817.00;;;23.16;67.11
70229;BME280;57617;51.988;5.854;2023-09-12T03:11:09;100822.41;;;23.12;66.95
70229;BME280;57617;51.988;5.854;2023-09-12T03:13:36;100826.31;;;23.11;66.70
70229;BME280;57617;51.988;5.854;2023-09-12T03:16:02;100812.94;;;23.13;67.00
70229;BME280;57617;51.988;5.854;2023-09-12T03:18:27;100813.59;;;23.10;67.05
70229;BME280;57617;51.988;5.854;2023-09-12T03:20:53;100815.38;;;23.15;66.92
70229;BME280;57617;51.988;5.854;2023-09-12T03:23:21;100814.41;;;23.11;66.92
70229;BME280;57617;51.988;5.854;2023-09-12T03:25:46;100810.63;;;23.07;66.83
70229;BME280;57617;51.988;5.854;2023-09-12T03:28:12;100805.28;;;23.02;66.73
70229;BME280;57617;51.988;5.854;2023-09-12T03:30:38;100802.16;;;23.03;67.09
70229;BME280;57617;51.988;5.854;2023-09-12T03:33:04;100798.06;;;23.01;66.87
70229;BME280;57617;51.988;5.854;2023-09-12T03:35:31;100806.41;;;23.09;67.19
70229;BME280;57617;51.988;5.854;2023-09-12T03:37:56;100805.59;;;23.09;66.62
70229;BME280;57617;51.988;5.854;2023-09-12T03:40:22;100795.97;;;23.06;66.77
70229;BME280;57617;51.988;5.854;2023-09-12T03:42:47;100792.22;;;23.02;66.77
70229;BME280;57617;51.988;5.854;2023-09-12T03:45:12;100795.13;;;22.97;66.73
70229;BME280;57617;51.988;5.854;2023-09-12T03:47:37;100783.75;;;22.99;66.96
70229;BME280;57617;51.988;5.854;2023-09-12T03:50:03;100779.81;;;23.00;66.89
70229;BME280;57617;51.988;5.854;2023-09-12T03:52:29;100772.31;;;22.92;67.14
70229;BME280;57617;51.988;5.854;2023-09-12T03:54:54;100783.88;;;22.85;66.87
70229;BME280;57617;51.988;5.854;2023-09-12T03:57:20;100787.44;;;22.86;67.19
70229;BME280;57617;51.988;5.854;2023-09-12T03:59:45;100795.59;;;22.91;67.49
70229;BME280;57617;51.988;5.854;2023-09-12T04:02:12;100776.88;;;22.96;67.08
70229;BME280;57617;51.988;5.854;2023-09-12T04:04:37;100786.03;;;23.05;67.58
70229;BME280;57617;51.988;5.854;2023-09-12T04:07:03;100784.56;;;23.08;66.89
70229;BME280;57617;51.988;5.854;2023-09-12T04:09:28;100775.91;;;23.09;67.04
70229;BME280;57617;51.988;5.854;2023-09-12T04:11:54;100771.34;;;23.13;66.85
70229;BME280;57617;51.988;5.854;2023-09-12T04:14:20;100766.81;;;23.09;67.10
70229;BME280;57617;51.988;5.854;2023-09-12T04:16:46;100764.34;;;23.07;66.87
70229;BME280;57617;51.988;5.854;2023-09-12T04:19:12;100759.78;;;23.03;67.20
70229;BME280;57617;51.988;5.854;2023-09-12T04:21:37;100764.19;;;23.04;66.73
70229;BME280;57617;51.988;5.854;2023-09-12T04:24:02;100753.94;;;23.04;67.35
70229;BME280;57617;51.988;5.854;2023-09-12T04:26:28;100760.59;;;23.03;67.21
70229;BME280;57617;51.988;5.854;2023-09-12T04:28:53;100762.72;;;22.98;67.02
70229;BME280;57617;51.988;5.854;2023-09-12T04:31:18;100762.22;;;22.96;67.34
70229;BME280;57617;51.988;5.854;2023-09-12T04:33:44;100761.41;;;22.95;67.19
70229;BME280;57617;51.988;5.854;2023-09-12T04:36:09;100757.00;;;22.94;67.33
70229;BME280;57617;51.988;5.854;2023-09-12T04:38:35;100758.31;;;22.97;67.47
70229;BME280;57617;51.988;5.854;2023-09-12T04:41:02;100757.00;;;22.94;67.20
70229;BME280;57617;51.988;5.854;2023-09-12T04:43:30;100754.88;;;22.91;67.23
70229;BME280;57617;51.988;5.854;2023-09-12T04:45:56;100753.25;;;22.90;67.26
70229;BME280;57617;51.988;5.854;2023-09-12T04:48:21;100753.88;;;22.87;67.29
70229;BME280;57617;51.988;5.854;2023-09-12T04:50:47;100752.56;;;22.85;67.66
70229;BME280;57617;51.988;5.854;2023-09-12T04:53:12;100759.56;;;22.82;67.54
70229;BME280;57617;51.988;5.854;2023-09-12T04:55:38;100769.50;;;22.83;67.46
70229;BME280;57617;51.988;5.854;2023-09-12T04:58:04;100777.34;;;22.90;67.56
70229;BME280;57617;51.988;5.854;2023-09-12T05:00:30;100780.13;;;22.98;67.55
70229;BME280;57617;51.988;5.854;2023-09-12T05:02:55;100778.03;;;23.04;67.73
70229;BME280;57617;51.988;5.854;2023-09-12T05:05:21;100785.22;;;23.05;66.87
70229;BME280;57617;51.988;5.854;2023-09-12T05:07:46;100787.34;;;23.08;67.76
70229;BME280;57617;51.988;5.854;2023-09-12T05:10:12;100769.06;;;23.07;67.57
70229;BME280;57617;51.988;5.854;2023-09-12T05:12:37;100771.34;;;23.05;67.73
70229;BME280;57617;51.988;5.854;2023-09-12T05:15:02;100773.66;;;23.03;67.83
70229;BME280;57617;51.988;5.854;2023-09-12T05:17:28;100776.72;;;23.01;67.43
70229;BME280;57617;51.988;5.854;2023-09-12T05:19:53;100777.56;;;23.02;67.77
70229;BME280;57617;51.988;5.854;2023-09-12T05:22:19;100778.03;;;23.04;67.81
70229;BME280;57617;51.988;5.854;2023-09-12T05:24:45;100779.97;;;23.03;67.95
70229;BME280;57617;51.988;5.854;2023-09-12T05:27:11;100784.72;;;23.03;67.70
70229;BME280;57617;51.988;5.854;2023-09-12T05:29:36;100789.59;;;23.06;68.15
70229;BME280;57617;51.988;5.854;2023-09-12T05:32:02;100797.44;;;23.12;67.77
70229;BME280;57617;51.988;5.854;2023-09-12T05:34:27;100805.59;;;23.17;67.81
70229;BME280;57617;51.988;5.854;2023-09-12T05:36:53;100810.72;;;23.24;68.00
70229;BME280;57617;51.988;5.854;2023-09-12T05:39:18;100804.03;;;23.25;67.79
70229;BME280;57617;51.988;5.854;2023-09-12T05:41:43;100807.28;;;23.27;67.96
70229;BME280;57617;51.988;5.854;2023-09-12T05:44:09;100810.38;;;23.25;67.95
70229;BME280;57617;51.988;5.854;2023-09-12T05:46:34;100804.03;;;23.25;67.85
70229;BME280;57617;51.988;5.854;2023-09-12T05:49:00;100805.63;;;23.26;67.95
70229;BME280;57617;51.988;5.854;2023-09-12T05:51:25;100799.78;;;23.27;68.45
70229;BME280;57617;51.988;5.854;2023-09-12T05:53:50;100800.44;;;23.33;68.03
70229;BME280;57617;51.988;5.854;2023-09-12T05:56:16;100791.78;;;23.34;67.89
70229;BME280;57617;51.988;5.854;2023-09-12T05:58:41;100794.56;;;23.34;68.02
70229;BME280;57617;51.988;5.854;2023-09-12T06:01:06;100792.78;;;23.38;68.14
70229;BME280;57617;51.988;5.854;2023-09-12T06:03:32;100801.25;;;23.42;68.36
70229;BME280;57617;51.988;5.854;2023-09-12T06:05:57;100798.66;;;23.45;68.80
70229;BME280;57617;51.988;5.854;2023-09-12T06:08:22;100789.19;;;23.46;68.85
70229;BME280;57617;51.988;5.854;2023-09-12T06:10:48;100801.59;;;23.49;68.80
70229;BME280;57617;51.988;5.854;2023-09-12T06:13:14;100803.38;;;23.53;69.07
70229;BME280;57617;51.988;5.854;2023-09-12T06:15:39;100817.41;;;23.57;68.82
70229;BME280;57617;51.988;5.854;2023-09-12T06:18:06;100820.69;;;23.59;68.91
70229;BME280;57617;51.988;5.854;2023-09-12T06:20:31;100825.56;;;23.62;68.80
70229;BME280;57617;51.988;5.854;2023-09-12T06:22:57;100828.31;;;23.62;69.13
70229;BME280;57617;51.988;5.854;2023-09-12T06:25:23;100817.41;;;23.57;68.94
70229;BME280;57617;51.988;5.854;2023-09-12T06:27:49;100822.31;;;23.60;69.22
70229;BME280;57617;51.988;5.854;2023-09-12T06:30:15;100827.84;;;23.60;69.24
70229;BME280;57617;51.988;5.854;2023-09-12T06:32:40;100834.88;;;23.66;69.21
70229;BME280;57617;51.988;5.854;2023-09-12T06:35:06;100832.09;;;23.66;68.93
70229;BME280;57617;51.988;5.854;2023-09-12T06:37:32;100832.56;;;23.68;68.96
70229;BME280;57617;51.988;5.854;2023-09-12T06:39:57;100827.00;;;23.68;68.87
70229;BME280;57617;51.988;5.854;2023-09-12T06:42:22;100827.00;;;23.68;69.09
70229;BME280;57617;51.988;5.854;2023-09-12T06:44:47;100833.72;;;23.67;69.19
70229;BME280;57617;51.988;5.854;2023-09-12T06:47:13;100831.75;;;23.67;68.94
70229;BME280;57617;51.988;5.854;2023-09-12T06:49:38;100827.38;;;23.66;68.87
70229;BME280;57617;51.988;5.854;2023-09-12T06:52:04;100821.00;;;23.66;69.17
70229;BME280;57617;51.988;5.854;2023-09-12T06:54:29;100818.53;;;23.64;69.35
70229;BME280;57617;51.988;5.854;2023-09-12T06:56:55;100824.41;;;23.63;69.39
70229;BME280;57617;51.988;5.854;2023-09-12T06:59:20;100830.78;;;23.63;69.28
70229;BME280;57617;51.988;5.854;2023-09-12T07:01:46;100828.31;;;23.70;69.93
70229;BME280;57617;51.988;5.854;2023-09-12T07:04:11;100830.28;;;23.78;69.46
70229;BME280;57617;51.988;5.854;2023-09-12T07:06:36;100833.22;;;23.82;69.16
70229;BME280;57617;51.988;5.854;2023-09-12T07:09:02;100835.19;;;23.81;69.08
70229;BME280;57617;51.988;5.854;2023-09-12T07:11:28;100839.09;;;23.80;69.09
70229;BME280;57617;51.988;5.854;2023-09-12T07:13:54;100827.19;;;23.80;69.50
70229;BME280;57617;51.988;5.854;2023-09-12T07:16:19;100828.81;;;23.81;68.93
70229;BME280;57617;51.988;5.854;2023-09-12T07:18:45;100830.94;;;23.84;69.57
70229;BME280;57617;51.988;5.854;2023-09-12T07:21:11;100830.94;;;23.84;69.39
70229;BME280;57617;51.988;5.854;2023-09-12T07:23:37;100830.59;;;23.85;69.18
70229;BME280;57617;51.988;5.854;2023-09-12T07:26:02;100831.44;;;23.86;69.08
70229;BME280;57617;51.988;5.854;2023-09-12T07:28:29;100840.22;;;23.88;69.32
70229;BME280;57617;51.988;5.854;2023-09-12T07:30:55;100834.38;;;23.89;69.09
70229;BME280;57617;51.988;5.854;2023-09-12T07:33:21;100842.72;;;23.89;69.55
70229;BME280;57617;51.988;5.854;2023-09-12T07:35:47;100847.25;;;23.94;69.08
70229;BME280;57617;51.988;5.854;2023-09-12T07:38:13;100847.44;;;23.97;69.45
70229;BME280;57617;51.988;5.854;2023-09-12T07:40:41;100846.28;;;23.98;69.53
70229;BME280;57617;51.988;5.854;2023-09-12T07:43:06;100833.72;;;24.01;69.37
70229;BME280;57617;51.988;5.854;2023-09-12T07:45:32;100834.53;;;24.01;69.32
70229;BME280;57617;51.988;5.854;2023-09-12T07:48:03;100830.63;;;24.02;69.54
70229;BME280;57617;51.988;5.854;2023-09-12T07:50:29;100835.34;;;24.02;69.44
70229;BME280;57617;51.988;5.854;2023-09-12T07:52:54;100835.19;;;23.98;68.94
70229;BME280;57617;51.988;5.854;2023-09-12T07:55:19;100846.28;;;23.98;69.48
70229;BME280;57617;51.988;5.854;2023-09-12T07:57:45;100823.28;;;23.89;69.11
70229;BME280;57617;51.988;5.854;2023-09-12T08:00:10;100838.78;;;23.99;69.56
70229;BME280;57617;51.988;5.854;2023-09-12T08:02:36;100835.19;;;23.98;69.04
70229;BME280;57617;51.988;5.854;2023-09-12T08:05:02;100836.50;;;24.01;69.44
70229;BME280;57617;51.988;5.854;2023-09-12T08:07:27;100827.84;;;24.02;69.39
70229;BME280;57617;51.988;5.854;2023-09-12T08:09:57;100829.78;;;24.02;69.45
70229;BME280;57617;51.988;5.854;2023-09-12T08:12:24;100825.41;;;24.01;69.05
70229;BME280;57617;51.988;5.854;2023-09-12T08:14:49;100825.88;;;24.03;69.19
70229;BME280;57617;51.988;5.854;2023-09-12T08:17:15;100828.97;;;24.10;69.73
70229;BME280;57617;51.988;5.854;2023-09-12T08:19:41;100835.97;;;24.16;69.66
70229;BME280;57617;51.988;5.854;2023-09-12T08:22:07;100838.91;;;24.19;69.28
70229;BME280;57617;51.988;5.854;2023-09-12T08:24:33;100841.22;;;24.17;69.68
70229;BME280;57617;51.988;5.854;2023-09-12T08:26:59;100834.97;;;24.20;69.30
70229;BME280;57617;51.988;5.854;2023-09-12T08:29:24;100828.63;;;24.20;69.63
70229;BME280;57617;51.988;5.854;2023-09-12T08:31:50;100834.34;;;24.23;69.45
70229;BME280;57617;51.988;5.854;2023-09-12T08:34:15;100839.38;;;24.30;69.49
70229;BME280;57617;51.988;5.854;2023-09-12T08:36:40;100843.94;;;24.34;69.15
70229;BME280;57617;51.988;5.854;2023-09-12T08:39:06;100859.13;;;24.37;69.67
70229;BME280;57617;51.988;5.854;2023-09-12T08:41:34;100851.25;;;24.39;69.80
70229;BME280;57617;51.988;5.854;2023-09-12T08:44:00;100860.09;;;24.41;69.16
70229;BME280;57617;51.988;5.854;2023-09-12T08:46:26;100857.78;;;24.43;69.13
70229;BME280;57617;51.988;5.854;2023-09-12T08:48:52;100863.34;;;24.43;69.25
70229;BME280;57617;51.988;5.854;2023-09-12T08:51:21;100858.13;;;24.41;69.45
70229;BME280;57617;51.988;5.854;2023-09-12T08:53:49;100862.34;;;24.47;70.04
70229;BME280;57617;51.988;5.854;2023-09-12T08:56:14;100858.91;;;24.50;69.19
70229;BME280;57617;51.988;5.854;2023-09-12T08:58:40;100859.56;;;24.56;69.33
70229;BME280;57617;51.988;5.854;2023-09-12T09:01:06;100865.59;;;24.58;69.32
70229;BME280;57617;51.988;5.854;2023-09-12T09:03:33;100868.22;;;24.63;69.05
70229;BME280;57617;51.988;5.854;2023-09-12T09:05:59;100866.69;;;24.74;68.84
70229;BME280;57617;51.988;5.854;2023-09-12T09:08:26;100865.50;;;24.83;68.50
70229;BME280;57617;51.988;5.854;2023-09-12T09:10:59;100870.50;;;24.98;67.68
70229;BME280;57617;51.988;5.854;2023-09-12T09:13:27;100877.16;;;25.06;67.80
70229;BME280;57617;51.988;5.854;2023-09-12T09:16:10;100865.66;;;25.16;67.57
70229;BME280;57617;51.988;5.854;2023-09-12T09:18:56;100865.59;;;25.24;67.47
70229;BME280;57617;51.988;5.854;2023-09-12T09:21:25;100863.81;;;25.28;67.46
70229;BME280;57617;51.988;5.854;2023-09-12T09:23:52;100867.16;;;25.42;67.16
70229;BME280;57617;51.988;5.854;2023-09-12T09:26:18;100864.25;;;25.59;67.41
70229;BME280;57617;51.988;5.854;2023-09-12T09:28:44;100863.84;;;25.69;66.75
70229;BME280;57617;51.988;5.854;2023-09-12T09:31:12;100880.41;;;25.86;66.58
70229;BME280;57617;51.988;5.854;2023-09-12T09:33:39;100879.66;;;25.98;65.93
70229;BME280;57617;51.988;5.854;2023-09-12T09:36:06;100888.28;;;26.05;64.98
70229;BME280;57617;51.988;5.854;2023-09-12T09:38:34;100895.63;;;26.09;64.58
70229;BME280;57617;51.988;5.854;2023-09-12T09:41:03;100885.75;;;26.12;64.57
70229;BME280;57617;51.988;5.854;2023-09-12T09:43:30;100895.06;;;26.16;64.36
70229;BME280;57617;51.988;5.854;2023-09-12T09:45:57;100896.13;;;26.23;64.10
70229;BME280;57617;51.988;5.854;2023-09-12T09:48:24;100890.94;;;26.34;63.81
70229;BME280;57617;51.988;5.854;2023-09-12T09:50:52;100892.81;;;26.42;62.98
70229;BME280;57617;51.988;5.854;2023-09-12T09:53:25;100888.19;;;26.46;62.86
70229;BME280;57617;51.988;5.854;2023-09-12T09:55:51;100889.81;;;26.47;63.00
70229;BME280;57617;51.988;5.854;2023-09-12T09:58:16;100887.25;;;26.42;62.37
70229;BME280;57617;51.988;5.854;2023-09-12T10:00:42;100893.38;;;26.35;62.54
70229;BME280;57617;51.988;5.854;2023-09-12T10:03:10;100896.25;;;26.27;62.57
70229;BME280;57617;51.988;5.854;2023-09-12T10:05:37;100893.25;;;26.32;62.55
70229;BME280;57617;51.988;5.854;2023-09-12T10:08:04;100899.81;;;26.48;62.68
70229;BME280;57617;51.988;5.854;2023-09-12T10:10:32;100895.22;;;26.64;62.32
70229;BME280;57617;51.988;5.854;2023-09-12T10:13:00;100892.34;;;26.72;61.65
70229;BME280;57617;51.988;5.854;2023-09-12T10:15:29;100891.78;;;26.79;60.90
70229;BME280;57617;51.988;5.854;2023-09-12T10:17:59;100887.81;;;26.80;60.49
70229;BME280;57617;51.988;5.854;2023-09-12T10:20:35;100887.81;;;26.80;59.40
70229;BME280;57617;51.988;5.854;2023-09-12T10:23:07;100877.25;;;26.85;59.71
70229;BME280;57617;51.988;5.854;2023-09-12T10:25:36;100873.53;;;26.93;59.89
70229;BME280;57617;51.988;5.854;2023-09-12T10:28:06;100877.03;;;27.02;59.73
70229;BME280;57617;51.988;5.854;2023-09-12T10:30:33;100886.91;;;27.12;59.42
70229;BME280;57617;51.988;5.854;2023-09-12T10:33:01;100876.47;;;27.21;58.74
70229;BME280;57617;51.988;5.854;2023-09-12T10:35:32;100873.44;;;27.26;58.73
70229;BME280;57617;51.988;5.854;2023-09-12T10:38:00;100869.50;;;27.27;58.33
70229;BME280;57617;51.988;5.854;2023-09-12T10:40:27;100867.84;;;27.26;57.91
70229;BME280;57617;51.988;5.854;2023-09-12T10:42:55;100866.03;;;27.18;58.11
70229;BME280;57617;51.988;5.854;2023-09-12T10:45:20;100866.03;;;27.18;58.20
70229;BME280;57617;51.988;5.854;2023-09-12T10:47:46;100859.94;;;27.16;57.75
70229;BME280;57617;51.988;5.854;2023-09-12T10:50:12;100859.81;;;27.12;57.36
70229;BME280;57617;51.988;5.854;2023-09-12T10:52:38;100857.13;;;27.16;57.34
70229;BME280;57617;51.988;5.854;2023-09-12T10:55:05;100868.00;;;27.17;56.90
70229;BME280;57617;51.988;5.854;2023-09-12T10:57:31;100863.53;;;27.16;56.41
70229;BME280;57617;51.988;5.854;2023-09-12T11:02:29;100877.06;;;27.26;55.61
70229;BME280;57617;51.988;5.854;2023-09-12T11:04:56;100873.44;;;27.38;56.53
70229;BME280;57617;51.988;5.854;2023-09-12T11:12:56;100864.38;;;27.80;54.79
70229;BME280;57617;51.988;5.854;2023-09-12T11:15:26;100863.28;;;27.97;55.53
70229;BME280;57617;51.988;5.854;2023-09-12T11:18:02;100866.06;;;28.09;55.06
70229;BME280;57617;51.988;5.854;2023-09-12T11:20:50;100871.56;;;28.21;54.50
70229;BME280;57617;51.988;5.854;2023-09-12T11:23:16;100858.97;;;28.27;55.14
70229;BME280;57617;51.988;5.854;2023-09-12T11:25:43;100858.78;;;28.35;54.85
70229;BME280;57617;51.988;5.854;2023-09-12T11:28:08;100850.72;;;28.46;54.60
70229;BME280;57617;51.988;5.854;2023-09-12T11:30:34;100848.59;;;28.55;54.06
70229;BME280;57617;51.988;5.854;2023-09-12T11:33:03;100840.72;;;28.60;53.96
70229;BME280;57617;51.988;5.854;2023-09-12T11:35:29;100847.31;;;28.68;53.68
70229;BME280;57617;51.988;5.854;2023-09-12T11:37:58;100845.94;;;28.77;53.49
70229;BME280;57617;51.988;5.854;2023-09-12T11:40:41;100838.28;;;28.90;53.20
70229;BME280;57617;51.988;5.854;2023-09-12T11:43:08;100842.44;;;28.96;53.20
70229;BME280;57617;51.988;5.854;2023-09-12T11:45:33;100841.63;;;28.95;53.20
70229;BME280;57617;51.988;5.854;2023-09-12T11:48:02;100841.81;;;28.87;53.73
70229;BME280;57617;51.988;5.854;2023-09-12T11:50:35;100848.13;;;28.68;53.56
70229;BME280;57617;51.988;5.854;2023-09-12T11:53:08;100844.06;;;28.50;53.71
70229;BME280;57617;51.988;5.854;2023-09-12T11:55:44;100845.63;;;28.36;54.21
70229;BME280;57617;51.988;5.854;2023-09-12T11:58:11;100848.22;;;28.29;55.20
70229;BME280;57617;51.988;5.854;2023-09-12T12:00:37;100848.34;;;28.32;55.56
70229;BME280;57617;51.988;5.854;2023-09-12T12:03:03;100843.91;;;28.31;55.16
70229;BME280;57617;51.988;5.854;2023-09-12T12:05:29;100839.13;;;28.32;55.13
70229;BME280;57617;51.988;5.854;2023-09-12T12:07:54;100841.09;;;28.31;55.31
70229;BME280;57617;51.988;5.854;2023-09-12T12:10:20;100836.78;;;28.34;55.42
70229;BME280;57617;51.988;5.854;2023-09-12T12:12:45;100839.13;;;28.32;55.37
70229;BME280;57617;51.988;5.854;2023-09-12T12:15:12;100843.72;;;28.24;55.28
70229;BME280;57617;51.988;5.854;2023-09-12T12:17:37;100843.31;;;28.10;55.57
70229;BME280;57617;51.988;5.854;2023-09-12T12:20:09;100846.19;;;27.98;55.32
70229;BME280;57617;51.988;5.854;2023-09-12T12:22:39;100837.34;;;27.96;55.02
70229;BME280;57617;51.988;5.854;2023-09-12T12:25:09;100836.34;;;27.89;55.49
70229;BME280;57617;51.988;5.854;2023-09-12T12:27:36;100836.47;;;27.80;55.78
70229;BME280;57617;51.988;5.854;2023-09-12T12:30:04;100826.59;;;27.71;56.28
70229;BME280;57617;51.988;5.854;2023-09-12T12:32:29;100832.66;;;27.73;56.23
70229;BME280;57617;51.988;5.854;2023-09-12T12:34:54;100833.91;;;27.87;56.17
70229;BME280;57617;51.988;5.854;2023-09-12T12:37:20;100822.56;;;27.96;55.69
70229;BME280;57617;51.988;5.854;2023-09-12T12:39:45;100824.16;;;28.09;54.74
70229;BME280;57617;51.988;5.854;2023-09-12T12:42:10;100821.81;;;28.26;54.59
70229;BME280;57617;51.988;5.854;2023-09-12T12:44:36;100815.66;;;28.48;53.98
70229;BME280;57617;51.988;5.854;2023-09-12T12:47:06;100816.66;;;28.56;53.07
70229;BME280;57617;51.988;5.854;2023-09-12T12:49:36;100812.94;;;28.67;52.19
70229;BME280;57617;51.988;5.854;2023-09-12T12:52:03;100812.78;;;28.76;52.05
70229;BME280;57617;51.988;5.854;2023-09-12T12:54:31;100817.06;;;28.89;51.91
70229;BME280;57617;51.988;5.854;2023-09-12T12:56:57;100819.69;;;28.97;51.26
70229;BME280;57617;51.988;5.854;2023-09-12T12:59:22;100814.72;;;29.06;51.28